sensor_id;sensor_type;location;lat;lon;timestamp;pressure;altitude;pressure_sealevel;temperature;humidity
49463;BME280;35357;51.722;0.500;2022-10-26T00:01:05;100568.28;;;15.58;96.98
49463;BME280;35357;51.722;0.500;2022-10-26T00:03:33;100569.73;;;15.98;94.37
49463;BME280;35357;51.722;0.500;2022-10-26T00:06:03;100569.41;;;15.68;93.98
49463;BME280;35357;51.722;0.500;2022-10-26T00:08:31;100568.57;;;16.50;92.24
49463;BME280;35357;51.722;0.500;2022-10-26T00:10:57;100566.75;;;16.54;91.27
49463;BME280;35357;51.722;0.500;2022-10-26T00:13:24;100564.01;;;16.14;91.37
49463;BME280;35357;51.722;0.500;2022-10-26T00:15:52;100558.79;;;15.83;93.84
49463;BME280;35357;51.722;0.500;2022-10-26T00:18:20;100554.98;;;15.39;97.35
49463;BME280;35357;51.722;0.500;2022-10-26T00:20:47;100558.54;;;15.92;93.90
49463;BME280;35357;51.722;0.500;2022-10-26T00:23:14;100556.04;;;16.30;91.63
49463;BME280;35357;51.722;0.500;2022-10-26T00:25:41;100548.68;;;15.35;93.73
49463;BME280;35357;51.722;0.500;2022-10-26T00:28:09;100546.28;;;15.90;93.64
49463;BME280;35357;51.722;0.500;2022-10-26T00:30:38;100546.78;;;15.65;93.37
49463;BME280;35357;51.722;0.500;2022-10-26T00:33:05;100547.61;;;16.23;91.99
49463;BME280;35357;51.722;0.500;2022-10-26T00:35:32;100549.27;;;16.25;90.95
49463;BME280;35357;51.722;0.500;2022-10-26T00:37:59;100550.58;;;16.41;90.94
49463;BME280;35357;51.722;0.500;2022-10-26T00:40:27;100549.29;;;16.50;89.92
49463;BME280;35357;51.722;0.500;2022-10-26T00:42:54;100547.93;;;16.01;92.09
49463;BME280;35357;51.722;0.500;2022-10-26T00:45:23;100544.82;;;16.95;89.46
49463;BME280;35357;51.722;0.500;2022-10-26T00:47:52;100539.25;;;16.51;89.99
49463;BME280;35357;51.722;0.500;2022-10-26T00:50:25;100532.78;;;16.10;90.81
49463;BME280;35357;51.722;0.500;2022-10-26T00:52:54;100527.53;;;16.27;91.81
49463;BME280;35357;51.722;0.500;2022-10-26T00:55:27;100524.98;;;16.04;91.88
49463;BME280;35357;51.722;0.500;2022-10-26T00:57:56;100525.70;;;16.50;91.09
49463;BME280;35357;51.722;0.500;2022-10-26T01:00:23;100524.48;;;16.20;90.82
49463;BME280;35357;51.722;0.500;2022-10-26T01:02:51;100524.33;;;16.31;90.36
49463;BME280;35357;51.722;0.500;2022-10-26T01:05:21;100523.67;;;15.99;91.65
49463;BME280;35357;51.722;0.500;2022-10-26T01:07:50;100522.83;;;16.50;90.80
49463;BME280;35357;51.722;0.500;2022-10-26T01:10:17;100522.44;;;15.94;92.38
49463;BME280;35357;51.722;0.500;2022-10-26T01:12:44;100522.61;;;16.61;89.91
49463;BME280;35357;51.722;0.500;2022-10-26T01:15:11;100522.53;;;16.82;89.18
49463;BME280;35357;51.722;0.500;2022-10-26T01:17:51;100522.62;;;17.02;87.69
49463;BME280;35357;51.722;0.500;2022-10-26T01:20:53;100528.49;;;16.85;87.37
49463;BME280;35357;51.722;0.500;2022-10-26T01:23:28;100528.17;;;17.19;85.90
49463;BME280;35357;51.722;0.500;2022-10-26T01:26:16;100523.68;;;17.31;85.55
49463;BME280;35357;51.722;0.500;2022-10-26T01:29:10;100516.53;;;17.26;85.55
49463;BME280;35357;51.722;0.500;2022-10-26T01:31:41;100510.86;;;16.57;87.98
49463;BME280;35357;51.722;0.500;2022-10-26T01:34:13;100500.75;;;16.69;89.00
49463;BME280;35357;51.722;0.500;2022-10-26T01:36:47;100498.32;;;16.32;89.72
49463;BME280;35357;51.722;0.500;2022-10-26T01:39:20;100502.59;;;16.24;91.36
49463;BME280;35357;51.722;0.500;2022-10-26T01:41:50;100501.04;;;16.37;91.51
49463;BME280;35357;51.722;0.500;2022-10-26T01:44:22;100492.81;;;16.39;91.54
49463;BME280;35357;51.722;0.500;2022-10-26T01:46:53;100489.98;;;16.11;91.69
49463;BME280;35357;51.722;0.500;2022-10-26T01:49:24;100479.21;;;16.63;89.29
49463;BME280;35357;51.722;0.500;2022-10-26T01:51:52;100480.66;;;16.06;91.26
49463;BME280;35357;51.722;0.500;2022-10-26T01:54:19;100484.36;;;16.50;91.26
49463;BME280;35357;51.722;0.500;2022-10-26T01:56:49;100485.14;;;16.64;90.13
49463;BME280;35357;51.722;0.500;2022-10-26T01:59:32;100488.43;;;16.39;89.98
49463;BME280;35357;51.722;0.500;2022-10-26T02:02:18;100491.38;;;16.73;88.59
49463;BME280;35357;51.722;0.500;2022-10-26T02:05:07;100492.75;;;17.08;87.09
49463;BME280;35357;51.722;0.500;2022-10-26T02:07:40;100487.84;;;17.04;86.56
49463;BME280;35357;51.722;0.500;2022-10-26T02:10:21;100482.39;;;17.20;85.46
49463;BME280;35357;51.722;0.500;2022-10-26T02:12:56;100475.92;;;17.03;86.65
49463;BME280;35357;51.722;0.500;2022-10-26T02:15:36;100471.20;;;16.88;87.20
49463;BME280;35357;51.722;0.500;2022-10-26T02:18:11;100468.10;;;16.64;88.09
49463;BME280;35357;51.722;0.500;2022-10-26T02:20:44;100469.33;;;16.88;87.79
49463;BME280;35357;51.722;0.500;2022-10-26T02:23:14;100463.13;;;16.99;87.24
49463;BME280;35357;51.722;0.500;2022-10-26T02:25:49;100464.11;;;16.81;87.81
49463;BME280;35357;51.722;0.500;2022-10-26T02:28:23;100462.63;;;17.34;86.65
49463;BME280;35357;51.722;0.500;2022-10-26T02:30:55;100463.32;;;17.33;85.14
49463;BME280;35357;51.722;0.500;2022-10-26T02:33:24;100475.26;;;17.41;85.70
49463;BME280;35357;51.722;0.500;2022-10-26T02:35:56;100482.42;;;17.27;86.35
49463;BME280;35357;51.722;0.500;2022-10-26T02:38:25;100484.72;;;17.40;85.70
49463;BME280;35357;51.722;0.500;2022-10-26T02:40:56;100485.59;;;17.05;86.88
49463;BME280;35357;51.722;0.500;2022-10-26T02:43:25;100479.67;;;17.39;85.52
49463;BME280;35357;51.722;0.500;2022-10-26T02:45:56;100480.43;;;17.37;84.76
49463;BME280;35357;51.722;0.500;2022-10-26T02:48:25;100485.73;;;17.81;83.45
49463;BME280;35357;51.722;0.500;2022-10-26T02:50:59;100480.34;;;17.06;84.99
49463;BME280;35357;51.722;0.500;2022-10-26T02:53:31;100477.33;;;18.07;83.31
49463;BME280;35357;51.722;0.500;2022-10-26T02:56:06;100469.52;;;17.94;83.20
49463;BME280;35357;51.722;0.500;2022-10-26T02:58:39;100467.13;;;17.80;82.68
49463;BME280;35357;51.722;0.500;2022-10-26T03:01:08;100461.64;;;18.03;82.73
49463;BME280;35357;51.722;0.500;2022-10-26T03:03:35;100462.31;;;18.10;82.47
49463;BME280;35357;51.722;0.500;2022-10-26T03:06:01;100459.60;;;17.77;83.39
49463;BME280;35357;51.722;0.500;2022-10-26T03:08:28;100452.20;;;17.75;83.35
49463;BME280;35357;51.722;0.500;2022-10-26T03:10:55;100447.25;;;17.62;85.71
49463;BME280;35357;51.722;0.500;2022-10-26T03:13:22;100439.87;;;16.94;87.09
49463;BME280;35357;51.722;0.500;2022-10-26T03:15:48;100440.32;;;16.95;88.39
49463;BME280;35357;51.722;0.500;2022-10-26T03:18:15;100442.56;;;16.77;88.46
49463;BME280;35357;51.722;0.500;2022-10-26T03:20:43;100441.93;;;16.93;88.02
49463;BME280;35357;51.722;0.500;2022-10-26T03:23:10;100443.33;;;17.12;86.79
49463;BME280;35357;51.722;0.500;2022-10-26T03:25:37;100439.83;;;17.11;87.23
49463;BME280;35357;51.722;0.500;2022-10-26T03:28:04;100442.70;;;17.43;85.90
49463;BME280;35357;51.722;0.500;2022-10-26T03:30:31;100442.89;;;17.38;86.06
49463;BME280;35357;51.722;0.500;2022-10-26T03:32:58;100432.18;;;17.39;86.08
49463;BME280;35357;51.722;0.500;2022-10-26T03:35:26;100427.97;;;16.64;88.16
49463;BME280;35357;51.722;0.500;2022-10-26T03:37:52;100435.48;;;17.21;87.10
49463;BME280;35357;51.722;0.500;2022-10-26T03:40:20;100439.61;;;17.37;85.70
49463;BME280;35357;51.722;0.500;2022-10-26T03:42:46;100441.12;;;17.74;83.99
49463;BME280;35357;51.722;0.500;2022-10-26T03:45:13;100437.11;;;17.58;83.13
49463;BME280;35357;51.722;0.500;2022-10-26T03:47:43;100430.96;;;17.41;83.51
49463;BME280;35357;51.722;0.500;2022-10-26T03:50:12;100422.78;;;17.73;84.18
49463;BME280;35357;51.722;0.500;2022-10-26T03:52:39;100423.74;;;17.15;85.33
49463;BME280;35357;51.722;0.500;2022-10-26T03:55:08;100431.32;;;17.30;85.76
49463;BME280;35357;51.722;0.500;2022-10-26T03:57:39;100431.42;;;17.36;85.43
49463;BME280;35357;51.722;0.500;2022-10-26T04:00:08;100429.98;;;16.78;85.86
49463;BME280;35357;51.722;0.500;2022-10-26T04:02:35;100430.56;;;17.14;85.46
49463;BME280;35357;51.722;0.500;2022-10-26T04:05:03;100424.12;;;17.21;85.26
49463;BME280;35357;51.722;0.500;2022-10-26T04:07:30;100425.53;;;17.39;85.49
49463;BME280;35357;51.722;0.500;2022-10-26T04:09:57;100429.69;;;17.45;85.38
49463;BME280;35357;51.722;0.500;2022-10-26T04:12:24;100423.84;;;17.51;85.09
49463;BME280;35357;51.722;0.500;2022-10-26T04:14:51;100415.26;;;17.64;85.23
49463;BME280;35357;51.722;0.500;2022-10-26T04:17:18;100413.91;;;17.18;86.16
49463;BME280;35357;51.722;0.500;2022-10-26T04:19:45;100410.89;;;17.25;86.63
49463;BME280;35357;51.722;0.500;2022-10-26T04:22:12;100415.66;;;16.84;86.77
49463;BME280;35357;51.722;0.500;2022-10-26T04:24:39;100416.21;;;17.16;86.33
49463;BME280;35357;51.722;0.500;2022-10-26T04:27:05;100423.91;;;16.65;87.61
49463;BME280;35357;51.722;0.500;2022-10-26T04:29:32;100422.80;;;16.96;86.58
49463;BME280;35357;51.722;0.500;2022-10-26T04:31:59;100428.62;;;17.35;85.88
49463;BME280;35357;51.722;0.500;2022-10-26T04:34:27;100430.71;;;17.17;85.19
49463;BME280;35357;51.722;0.500;2022-10-26T04:36:54;100432.60;;;17.27;85.00
49463;BME280;35357;51.722;0.500;2022-10-26T04:39:21;100438.82;;;17.31;85.02
49463;BME280;35357;51.722;0.500;2022-10-26T04:41:48;100442.46;;;17.21;86.27
49463;BME280;35357;51.722;0.500;2022-10-26T04:44:15;100444.70;;;16.85;87.46
49463;BME280;35357;51.722;0.500;2022-10-26T04:46:42;100437.41;;;16.84;87.76
49463;BME280;35357;51.722;0.500;2022-10-26T04:49:10;100444.09;;;15.98;91.06
49463;BME280;35357;51.722;0.500;2022-10-26T04:51:37;100450.75;;;16.43;90.15
49463;BME280;35357;51.722;0.500;2022-10-26T04:54:04;100453.38;;;17.03;88.77
49463;BME280;35357;51.722;0.500;2022-10-26T04:56:32;100455.20;;;17.27;87.85
49463;BME280;35357;51.722;0.500;2022-10-26T04:58:58;100458.84;;;17.25;88.51
49463;BME280;35357;51.722;0.500;2022-10-26T05:01:25;100450.60;;;17.09;88.66
49463;BME280;35357;51.722;0.500;2022-10-26T05:03:52;100448.02;;;16.84;89.44
49463;BME280;35357;51.722;0.500;2022-10-26T05:06:20;100454.72;;;16.84;89.19
49463;BME280;35357;51.722;0.500;2022-10-26T05:08:47;100457.19;;;16.85;88.68
49463;BME280;35357;51.722;0.500;2022-10-26T05:11:15;100454.04;;;16.78;87.87
49463;BME280;35357;51.722;0.500;2022-10-26T05:13:42;100460.57;;;16.59;88.63
49463;BME280;35357;51.722;0.500;2022-10-26T05:16:09;100460.03;;;17.28;86.70
49463;BME280;35357;51.722;0.500;2022-10-26T05:18:37;100462.25;;;17.21;86.83
49463;BME280;35357;51.722;0.500;2022-10-26T05:21:04;100457.10;;;17.21;86.04
49463;BME280;35357;51.722;0.500;2022-10-26T05:23:31;100457.56;;;16.75;86.68
49463;BME280;35357;51.722;0.500;2022-10-26T05:25:58;100464.79;;;16.77;86.63
49463;BME280;35357;51.722;0.500;2022-10-26T05:28:25;100466.32;;;17.32;85.73
49463;BME280;35357;51.722;0.500;2022-10-26T05:30:52;100473.15;;;17.61;85.16
49463;BME280;35357;51.722;0.500;2022-10-26T05:33:19;100474.09;;;17.59;86.02
49463;BME280;35357;51.722;0.500;2022-10-26T05:35:46;100478.34;;;17.55;85.16
49463;BME280;35357;51.722;0.500;2022-10-26T05:38:14;100480.41;;;17.23;86.21
49463;BME280;35357;51.722;0.500;2022-10-26T05:40:46;100483.54;;;17.39;86.93
49463;BME280;35357;51.722;0.500;2022-10-26T05:43:13;100481.72;;;18.11;86.07
49463;BME280;35357;51.722;0.500;2022-10-26T05:45:40;100488.18;;;17.29;86.34
49463;BME280;35357;51.722;0.500;2022-10-26T05:48:07;100481.60;;;17.50;87.79
49463;BME280;35357;51.722;0.500;2022-10-26T05:50:34;100485.34;;;17.81;85.53
49463;BME280;35357;51.722;0.500;2022-10-26T05:53:01;100485.86;;;17.31;85.99
49463;BME280;35357;51.722;0.500;2022-10-26T05:55:29;100490.84;;;17.15;85.86
49463;BME280;35357;51.722;0.500;2022-10-26T05:57:57;100490.80;;;17.81;84.42
49463;BME280;35357;51.722;0.500;2022-10-26T06:00:26;100489.39;;;17.20;84.64
49463;BME280;35357;51.722;0.500;2022-10-26T06:03:07;100500.15;;;17.58;85.55
49463;BME280;35357;51.722;0.500;2022-10-26T06:05:49;100512.34;;;17.51;84.43
49463;BME280;35357;51.722;0.500;2022-10-26T06:08:18;100513.73;;;17.05;85.50
49463;BME280;35357;51.722;0.500;2022-10-26T06:10:46;100517.69;;;17.10;86.08
49463;BME280;35357;51.722;0.500;2022-10-26T06:13:14;100528.00;;;17.72;85.33
49463;BME280;35357;51.722;0.500;2022-10-26T06:15:51;100530.01;;;17.47;86.47
49463;BME280;35357;51.722;0.500;2022-10-26T06:18:27;100531.43;;;16.83;89.63
49463;BME280;35357;51.722;0.500;2022-10-26T06:21:09;100537.58;;;17.24;88.05
49463;BME280;35357;51.722;0.500;2022-10-26T06:23:46;100540.46;;;16.37;90.32
49463;BME280;35357;51.722;0.500;2022-10-26T06:26:28;100546.69;;;17.04;88.24
49463;BME280;35357;51.722;0.500;2022-10-26T06:29:08;100556.27;;;17.52;88.41
49463;BME280;35357;51.722;0.500;2022-10-26T06:31:39;100560.54;;;16.88;89.15
49463;BME280;35357;51.722;0.500;2022-10-26T06:34:07;100567.23;;;17.08;89.83
49463;BME280;35357;51.722;0.500;2022-10-26T06:36:37;100572.96;;;17.44;88.80
49463;BME280;35357;51.722;0.500;2022-10-26T06:39:06;100576.96;;;16.74;89.97
49463;BME280;35357;51.722;0.500;2022-10-26T06:41:35;100579.14;;;16.66;90.96
49463;BME280;35357;51.722;0.500;2022-10-26T06:44:04;100574.79;;;17.85;87.62
49463;BME280;35357;51.722;0.500;2022-10-26T06:46:37;100583.70;;;17.64;87.93
49463;BME280;35357;51.722;0.500;2022-10-26T06:49:12;100582.37;;;17.55;87.57
49463;BME280;35357;51.722;0.500;2022-10-26T06:51:48;100593.78;;;18.10;85.53
49463;BME280;35357;51.722;0.500;2022-10-26T06:54:22;100593.30;;;18.26;84.28
49463;BME280;35357;51.722;0.500;2022-10-26T06:56:53;100595.75;;;18.25;83.39
49463;BME280;35357;51.722;0.500;2022-10-26T06:59:31;100599.23;;;18.04;84.09
49463;BME280;35357;51.722;0.500;2022-10-26T07:02:01;100600.79;;;18.46;82.31
49463;BME280;35357;51.722;0.500;2022-10-26T07:04:28;100603.38;;;18.71;81.71
49463;BME280;35357;51.722;0.500;2022-10-26T07:06:54;100609.75;;;18.63;81.03
49463;BME280;35357;51.722;0.500;2022-10-26T07:09:21;100609.19;;;18.47;80.68
49463;BME280;35357;51.722;0.500;2022-10-26T07:11:49;100608.11;;;18.35;80.67
49463;BME280;35357;51.722;0.500;2022-10-26T07:14:16;100607.33;;;18.38;80.37
49463;BME280;35357;51.722;0.500;2022-10-26T07:16:43;100602.35;;;17.97;81.04
49463;BME280;35357;51.722;0.500;2022-10-26T07:19:10;100606.88;;;18.54;79.88
49463;BME280;35357;51.722;0.500;2022-10-26T07:21:37;100609.11;;;18.21;80.45
49463;BME280;35357;51.722;0.500;2022-10-26T07:24:04;100613.40;;;17.74;81.86
49463;BME280;35357;51.722;0.500;2022-10-26T07:26:32;100618.96;;;17.85;81.70
49463;BME280;35357;51.722;0.500;2022-10-26T07:28:58;100621.25;;;17.96;81.55
49463;BME280;35357;51.722;0.500;2022-10-26T07:31:26;100628.13;;;18.01;81.23
49463;BME280;35357;51.722;0.500;2022-10-26T07:33:53;100632.36;;;18.10;81.46
49463;BME280;35357;51.722;0.500;2022-10-26T07:36:21;100628.61;;;18.21;81.13
49463;BME280;35357;51.722;0.500;2022-10-26T07:38:50;100632.65;;;17.79;82.41
49463;BME280;35357;51.722;0.500;2022-10-26T07:41:17;100633.13;;;17.90;82.00
49463;BME280;35357;51.722;0.500;2022-10-26T07:43:45;100644.46;;;17.88;82.26
49463;BME280;35357;51.722;0.500;2022-10-26T07:46:12;100647.67;;;17.96;82.03
49463;BME280;35357;51.722;0.500;2022-10-26T07:48:40;100640.16;;;17.89;81.72
49463;BME280;35357;51.722;0.500;2022-10-26T07:51:08;100642.29;;;18.34;80.99
49463;BME280;35357;51.722;0.500;2022-10-26T07:53:35;100642.01;;;18.27;80.83
49463;BME280;35357;51.722;0.500;2022-10-26T07:56:03;100643.36;;;17.97;81.65
49463;BME280;35357;51.722;0.500;2022-10-26T07:58:30;100644.87;;;18.15;81.73
49463;BME280;35357;51.722;0.500;2022-10-26T08:01:03;100646.85;;;17.42;83.85
49463;BME280;35357;51.722;0.500;2022-10-26T08:03:31;100654.24;;;17.99;83.07
49463;BME280;35357;51.722;0.500;2022-10-26T08:05:57;100654.52;;;17.84;83.02
49463;BME280;35357;51.722;0.500;2022-10-26T08:08:25;100654.91;;;17.93;82.57
49463;BME280;35357;51.722;0.500;2022-10-26T08:10:52;100655.53;;;17.72;84.82
49463;BME280;35357;51.722;0.500;2022-10-26T08:13:18;100656.63;;;17.72;84.33
49463;BME280;35357;51.722;0.500;2022-10-26T08:15:46;100657.59;;;17.80;84.81
49463;BME280;35357;51.722;0.500;2022-10-26T08:18:13;100659.77;;;17.76;84.15
49463;BME280;35357;51.722;0.500;2022-10-26T08:20:40;100664.14;;;17.66;85.23
49463;BME280;35357;51.722;0.500;2022-10-26T08:23:07;100662.80;;;17.57;85.61
49463;BME280;35357;51.722;0.500;2022-10-26T08:25:35;100665.13;;;17.00;87.92
49463;BME280;35357;51.722;0.500;2022-10-26T08:28:03;100666.46;;;16.33;90.84
49463;BME280;35357;51.722;0.500;2022-10-26T08:30:30;100663.27;;;16.33;91.32
49463;BME280;35357;51.722;0.500;2022-10-26T08:32:58;100663.54;;;16.86;89.93
49463;BME280;35357;51.722;0.500;2022-10-26T08:35:26;100665.17;;;16.92;88.89
49463;BME280;35357;51.722;0.500;2022-10-26T08:37:53;100665.14;;;17.08;87.49
49463;BME280;35357;51.722;0.500;2022-10-26T08:40:24;100667.52;;;16.14;89.94
49463;BME280;35357;51.722;0.500;2022-10-26T08:42:57;100670.57;;;17.13;87.75
49463;BME280;35357;51.722;0.500;2022-10-26T08:45:30;100670.81;;;16.37;90.89
49463;BME280;35357;51.722;0.500;2022-10-26T08:48:02;100670.59;;;16.36;91.02
49463;BME280;35357;51.722;0.500;2022-10-26T08:50:33;100674.28;;;16.80;90.46
49463;BME280;35357;51.722;0.500;2022-10-26T08:53:11;100689.83;;;17.08;89.27
49463;BME280;35357;51.722;0.500;2022-10-26T08:55:45;100693.66;;;17.18;87.97
49463;BME280;35357;51.722;0.500;2022-10-26T08:58:15;100705.43;;;16.08;94.15
49463;BME280;35357;51.722;0.500;2022-10-26T09:00:46;100702.43;;;16.22;93.26
49463;BME280;35357;51.722;0.500;2022-10-26T09:03:15;100703.90;;;16.56;91.78
49463;BME280;35357;51.722;0.500;2022-10-26T09:06:23;100706.61;;;16.78;91.15
49463;BME280;35357;51.722;0.500;2022-10-26T09:09:03;100707.78;;;17.34;89.07
49463;BME280;35357;51.722;0.500;2022-10-26T09:11:45;100706.05;;;17.01;89.28
49463;BME280;35357;51.722;0.500;2022-10-26T09:14:22;100696.62;;;16.96;88.24
49463;BME280;35357;51.722;0.500;2022-10-26T09:17:02;100704.17;;;16.59;91.29
49463;BME280;35357;51.722;0.500;2022-10-26T09:19:49;100699.94;;;17.29;88.97
49463;BME280;35357;51.722;0.500;2022-10-26T09:22:23;100707.15;;;17.26;89.82
49463;BME280;35357;51.722;0.500;2022-10-26T09:24:53;100710.57;;;17.27;90.38
49463;BME280;35357;51.722;0.500;2022-10-26T09:27:25;100710.16;;;17.08;90.33
49463;BME280;35357;51.722;0.500;2022-10-26T09:29:53;100710.03;;;17.31;89.47
49463;BME280;35357;51.722;0.500;2022-10-26T09:32:26;100724.36;;;17.16;91.37
49463;BME280;35357;51.722;0.500;2022-10-26T09:34:58;100723.69;;;17.44;89.19
49463;BME280;35357;51.722;0.500;2022-10-26T09:37:32;100722.26;;;16.79;91.98
49463;BME280;35357;51.722;0.500;2022-10-26T09:40:08;100713.52;;;16.49;91.92
49463;BME280;35357;51.722;0.500;2022-10-26T09:42:41;100725.79;;;17.22;90.19
49463;BME280;35357;51.722;0.500;2022-10-26T09:45:15;100714.31;;;16.64;90.99
49463;BME280;35357;51.722;0.500;2022-10-26T09:47:47;100710.86;;;17.44;87.17
49463;BME280;35357;51.722;0.500;2022-10-26T09:50:19;100710.66;;;17.47;86.34
49463;BME280;35357;51.722;0.500;2022-10-26T09:52:48;100704.38;;;18.17;84.49
49463;BME280;35357;51.722;0.500;2022-10-26T09:55:15;100706.27;;;18.17;83.98
49463;BME280;35357;51.722;0.500;2022-10-26T09:57:45;100713.91;;;18.49;82.14
49463;BME280;35357;51.722;0.500;2022-10-26T10:00:16;100724.03;;;19.04;80.71
49463;BME280;35357;51.722;0.500;2022-10-26T10:02:44;100724.33;;;18.16;83.03
49463;BME280;35357;51.722;0.500;2022-10-26T10:05:24;100732.65;;;18.39;83.04
49463;BME280;35357;51.722;0.500;2022-10-26T10:07:52;100732.59;;;19.19;81.17
49463;BME280;35357;51.722;0.500;2022-10-26T10:10:21;100735.25;;;18.87;81.24
49463;BME280;35357;51.722;0.500;2022-10-26T10:12:49;100736.93;;;18.65;82.13
49463;BME280;35357;51.722;0.500;2022-10-26T10:15:18;100742.31;;;19.12;80.30
49463;BME280;35357;51.722;0.500;2022-10-26T10:17:47;100750.02;;;18.84;80.76
49463;BME280;35357;51.722;0.500;2022-10-26T10:20:21;100755.00;;;18.03;83.61
49463;BME280;35357;51.722;0.500;2022-10-26T10:22:54;100753.64;;;18.08;83.93
49463;BME280;35357;51.722;0.500;2022-10-26T10:25:30;100760.20;;;17.98;84.94
49463;BME280;35357;51.722;0.500;2022-10-26T10:27:58;100754.08;;;18.73;83.42
49463;BME280;35357;51.722;0.500;2022-10-26T10:30:29;100760.58;;;19.04;80.82
49463;BME280;35357;51.722;0.500;2022-10-26T10:33:06;100771.75;;;18.98;82.03
49463;BME280;35357;51.722;0.500;2022-10-26T10:35:33;100761.18;;;18.89;82.33
49463;BME280;35357;51.722;0.500;2022-10-26T10:38:01;100772.83;;;18.64;82.74
49463;BME280;35357;51.722;0.500;2022-10-26T10:40:29;100771.14;;;18.91;81.77
49463;BME280;35357;51.722;0.500;2022-10-26T10:43:05;100780.26;;;18.95;83.93
49463;BME280;35357;51.722;0.500;2022-10-26T10:45:34;100791.56;;;18.61;83.07
49463;BME280;35357;51.722;0.500;2022-10-26T10:48:04;100789.96;;;18.82;84.67
49463;BME280;35357;51.722;0.500;2022-10-26T10:50:32;100794.47;;;18.50;83.54
49463;BME280;35357;51.722;0.500;2022-10-26T10:53:17;100788.41;;;18.50;85.74
49463;BME280;35357;51.722;0.500;2022-10-26T10:55:56;100802.85;;;18.47;84.80
49463;BME280;35357;51.722;0.500;2022-10-26T10:58:33;100807.25;;;19.15;82.71
49463;BME280;35357;51.722;0.500;2022-10-26T11:01:03;100814.00;;;18.43;84.80
49463;BME280;35357;51.722;0.500;2022-10-26T11:03:38;100812.15;;;18.80;83.92
49463;BME280;35357;51.722;0.500;2022-10-26T11:06:14;100820.37;;;19.09;82.39
49463;BME280;35357;51.722;0.500;2022-10-26T11:08:45;100813.47;;;18.60;84.41
49463;BME280;35357;51.722;0.500;2022-10-26T11:11:17;100818.20;;;18.58;85.26
49463;BME280;35357;51.722;0.500;2022-10-26T11:13:51;100823.79;;;19.00;82.10
49463;BME280;35357;51.722;0.500;2022-10-26T11:16:23;100820.24;;;18.96;82.54
49463;BME280;35357;51.722;0.500;2022-10-26T11:18:55;100829.31;;;18.32;84.08
49463;BME280;35357;51.722;0.500;2022-10-26T11:21:27;100823.75;;;19.05;82.19
49463;BME280;35357;51.722;0.500;2022-10-26T11:24:03;100827.83;;;18.12;84.52
49463;BME280;35357;51.722;0.500;2022-10-26T11:26:34;100833.52;;;17.97;84.50
49463;BME280;35357;51.722;0.500;2022-10-26T11:29:09;100831.58;;;18.15;84.48
49463;BME280;35357;51.722;0.500;2022-10-26T11:31:42;100824.27;;;18.41;83.13
49463;BME280;35357;51.722;0.500;2022-10-26T11:34:17;100827.34;;;18.07;83.97
49463;BME280;35357;51.722;0.500;2022-10-26T11:36:51;100838.20;;;18.08;83.36
49463;BME280;35357;51.722;0.500;2022-10-26T11:39:27;100836.21;;;17.45;83.53
49463;BME280;35357;51.722;0.500;2022-10-26T11:42:04;100836.52;;;18.41;81.03
49463;BME280;35357;51.722;0.500;2022-10-26T11:44:38;100836.07;;;18.01;81.88
49463;BME280;35357;51.722;0.500;2022-10-26T11:47:11;100841.99;;;18.09;81.30
49463;BME280;35357;51.722;0.500;2022-10-26T11:49:45;100836.32;;;17.37;81.87
49463;BME280;35357;51.722;0.500;2022-10-26T11:52:19;100848.10;;;17.67;79.52
49463;BME280;35357;51.722;0.500;2022-10-26T11:54:50;100851.96;;;18.11;78.01
49463;BME280;35357;51.722;0.500;2022-10-26T11:57:21;100857.43;;;18.23;76.31
49463;BME280;35357;51.722;0.500;2022-10-26T11:59:51;100856.23;;;18.43;74.15
49463;BME280;35357;51.722;0.500;2022-10-26T12:02:21;100863.53;;;18.17;75.68
49463;BME280;35357;51.722;0.500;2022-10-26T12:04:53;100866.34;;;18.87;70.94
49463;BME280;35357;51.722;0.500;2022-10-26T12:07:25;100861.37;;;17.76;71.34
49463;BME280;35357;51.722;0.500;2022-10-26T12:09:53;100871.54;;;18.10;71.39
49463;BME280;35357;51.722;0.500;2022-10-26T12:12:29;100872.01;;;17.82;71.65
49463;BME280;35357;51.722;0.500;2022-10-26T12:15:06;100867.88;;;17.63;72.15
49463;BME280;35357;51.722;0.500;2022-10-26T12:17:45;100880.63;;;18.73;70.08
49463;BME280;35357;51.722;0.500;2022-10-26T12:20:57;100877.39;;;19.16;69.21
49463;BME280;35357;51.722;0.500;2022-10-26T12:23:24;100881.72;;;18.00;70.07
49463;BME280;35357;51.722;0.500;2022-10-26T12:26:37;100881.84;;;17.85;70.36
49463;BME280;35357;51.722;0.500;2022-10-26T12:29:26;100884.50;;;17.90;71.14
49463;BME280;35357;51.722;0.500;2022-10-26T12:31:54;100895.15;;;18.55;70.18
49463;BME280;35357;51.722;0.500;2022-10-26T12:34:23;100898.06;;;18.59;70.64
49463;BME280;35357;51.722;0.500;2022-10-26T12:37:10;100906.12;;;;
49463;BME280;35357;51.722;0.500;2022-10-26T12:39:45;100908.94;;;18.46;69.94
49463;BME280;35357;51.722;0.500;2022-10-26T12:42:28;100923.94;;;17.66;71.83
49463;BME280;35357;51.722;0.500;2022-10-26T12:45:17;100922.46;;;18.07;68.36
49463;BME280;35357;51.722;0.500;2022-10-26T12:48:03;100922.58;;;18.42;66.49
49463;BME280;35357;51.722;0.500;2022-10-26T12:50:31;100933.00;;;17.39;68.64
49463;BME280;35357;51.722;0.500;2022-10-26T12:52:59;100934.09;;;18.16;66.57
49463;BME280;35357;51.722;0.500;2022-10-26T12:56:13;100932.27;;;17.73;67.84
49463;BME280;35357;51.722;0.500;2022-10-26T12:59:11;100944.14;;;18.08;64.54
49463;BME280;35357;51.722;0.500;2022-10-26T13:02:11;100950.02;;;17.80;65.30
49463;BME280;35357;51.722;0.500;2022-10-26T13:05:18;100958.78;;;17.93;66.26
49463;BME280;35357;51.722;0.500;2022-10-26T13:07:50;100954.53;;;18.79;62.74
49463;BME280;35357;51.722;0.500;2022-10-26T13:10:20;100955.90;;;18.07;64.31
49463;BME280;35357;51.722;0.500;2022-10-26T13:12:51;100954.49;;;18.42;63.44